বাংলা English Search

Maritime Ports have been advised to hoist local cautionary signal no. three (R) three.

METAR

METAR VGHS 081900Z 15008KT 4000 HZ SCT015 BKN100 30/25 Q1000 NOSIG=